Time;durP1;ratioP1;P1;durP2;ratioP2;P2;SDS_P1;SDS_P2;PMS_P1;PMS_P2;Temp;Humidity;BMP_temperature;BMP_pressure;BME280_temperature;BME280_humidity;BME280_pressure;Samples;Min_cycle;Max_cycle;Signal;HPM_P1;HPM_P2
2023/08/19 00:01:04;;;;;;;1999.90;999.90;;;;;;;19.89;100.00;95340.81;5004036;28;20212;-59
2023/08/19 00:03:33;;;;;;;1999.90;999.90;;;;;;;19.89;100.00;95340.81;5004537;28;20412;-60
2023/08/19 00:06:04;;;;;;;1999.90;999.90;;;;;;;19.90;100.00;95338.81;5007494;28;20196;-59
2023/08/19 00:08:29;;;;;;;1999.90;999.90;;;;;;;19.87;100.00;95337.75;5008595;28;20196;-60
2023/08/19 00:10:55;;;;;;;1999.90;999.90;;;;;;;19.75;100.00;95330.38;5008164;28;20274;-60
2023/08/19 00:13:20;;;;;;;1999.90;999.90;;;;;;;19.78;100.00;95337.75;5007948;28;20183;-59
2023/08/19 00:15:45;;;;;;;1999.90;999.90;;;;;;;19.72;100.00;95331.28;5008519;28;20210;-60
2023/08/19 00:18:11;;;;;;;1999.90;999.90;;;;;;;19.68;100.00;95327.13;5008239;28;20219;-59
2023/08/19 00:20:36;;;;;;;1999.90;999.90;;;;;;;19.66;100.00;95316.50;5007754;28;20195;-59
2023/08/19 00:23:02;;;;;;;1999.90;999.90;;;;;;;19.61;100.00;95314.38;5008034;28;20192;-59
2023/08/19 00:25:27;;;;;;;1999.90;999.90;;;;;;;19.63;100.00;95319.44;5007917;28;20202;-59
2023/08/19 00:27:53;;;;;;;1999.90;999.90;;;;;;;19.65;100.00;95314.97;5007745;28;20242;-60
2023/08/19 00:30:18;;;;;;;1999.90;999.90;;;;;;;19.64;100.00;95319.00;5007736;28;20275;-59
2023/08/19 00:32:46;;;;;;;1999.90;999.90;;;;;;;19.62;100.00;95318.69;5007589;28;20191;-60
2023/08/19 00:35:13;;;;;;;1999.90;999.90;;;;;;;19.57;100.00;95319.31;5007550;28;20215;-59
2023/08/19 00:37:38;;;;;;;1999.90;999.90;;;;;;;19.55;100.00;95316.22;5007636;28;20374;-59
2023/08/19 00:40:04;;;;;;;1999.90;999.90;;;;;;;19.53;100.00;95315.91;5007390;28;20286;-59
2023/08/19 00:42:30;;;;;;;1999.90;999.90;;;;;;;19.52;100.00;95315.16;5007180;28;20267;-60
2023/08/19 00:44:55;;;;;;;1999.90;999.90;;;;;;;19.48;100.00;95299.91;5007955;28;20226;-59
2023/08/19 00:47:21;;;;;;;1999.90;999.90;;;;;;;19.43;100.00;95295.00;5007235;28;20196;-59
2023/08/19 00:49:48;;;;;;;1999.90;999.90;;;;;;;19.40;100.00;95298.69;5007161;28;20200;-60
2023/08/19 00:52:13;;;;;;;1999.90;999.90;;;;;;;19.31;100.00;95290.38;5007067;28;20204;-60
2023/08/19 00:54:39;;;;;;;1999.90;999.90;;;;;;;19.26;100.00;95291.75;5007229;28;20206;-59
2023/08/19 00:57:04;;;;;;;1999.90;999.90;;;;;;;19.21;100.00;95292.34;5007483;28;20253;-59
2023/08/19 00:59:30;;;;;;;1999.90;999.90;;;;;;;19.17;100.00;95283.41;5007106;28;20212;-59
2023/08/19 01:01:55;;;;;;;1999.90;999.90;;;;;;;19.15;100.00;95283.13;5007478;28;20203;-59
2023/08/19 01:04:21;;;;;;;1999.90;999.90;;;;;;;19.13;100.00;95273.75;5007065;28;20196;-59
2023/08/19 01:06:58;;;;;;;1999.90;999.90;;;;;;;19.11;100.00;95265.09;5007241;28;20203;-59
2023/08/19 01:09:36;;;;;;;1999.90;999.90;;;;;;;19.05;100.00;95259.41;5007013;28;20199;-59
2023/08/19 01:12:26;;;;;;;1999.90;999.90;;;;;;;19.01;100.00;95249.72;5007678;28;20203;-59
2023/08/19 01:15:06;;;;;;;1999.90;999.90;;;;;;;19.00;100.00;95237.13;5006784;28;20207;-59
2023/08/19 01:17:33;;;;;;;1999.90;999.90;;;;;;;18.98;100.00;95239.59;5006882;28;20203;-59
2023/08/19 01:19:59;;;;;;;1999.90;999.90;;;;;;;18.95;100.00;95229.44;5006828;28;20251;-59
2023/08/19 01:22:37;;;;;;;1999.90;999.90;;;;;;;18.91;100.00;95217.75;5006881;28;20204;-59
2023/08/19 01:25:04;;;;;;;1999.90;999.90;;;;;;;18.88;100.00;95207.59;5006920;28;20199;-59
2023/08/19 01:27:30;;;;;;;1999.90;999.90;;;;;;;18.87;100.00;95208.84;5006802;28;20207;-59
2023/08/19 01:29:58;;;;;;;1999.90;999.90;;;;;;;18.83;100.00;95205.47;5007061;28;20176;-60
2023/08/19 01:32:24;;;;;;;1999.90;999.90;;;;;;;18.79;100.00;95196.50;5006835;28;20195;-59
2023/08/19 01:34:51;;;;;;;1999.90;999.90;;;;;;;18.74;100.00;95195.16;5006229;28;20195;-59
2023/08/19 01:37:26;;;;;;;1999.90;999.90;;;;;;;18.68;100.00;95187.91;5006783;28;20230;-59
2023/08/19 01:39:54;;;;;;;1999.90;999.90;;;;;;;18.67;100.00;95162.25;5006328;28;20211;-59
2023/08/19 01:42:21;;;;;;;1999.90;999.90;;;;;;;18.62;100.00;95159.31;5006366;28;20519;-59
2023/08/19 01:44:48;;;;;;;1999.90;999.90;;;;;;;18.58;100.00;95155.94;5006723;28;20196;-59
2023/08/19 01:47:16;;;;;;;1999.90;999.90;;;;;;;18.54;100.00;95145.00;5006237;28;20199;-59
2023/08/19 01:49:43;;;;;;;1999.90;999.90;;;;;;;18.44;100.00;95126.13;5006287;28;20226;-60
2023/08/19 01:52:09;;;;;;;1999.90;999.90;;;;;;;18.33;100.00;95106.41;5006247;28;20263;-60
2023/08/19 01:54:35;;;;;;;1999.90;999.90;;;;;;;18.24;100.00;95067.69;5006456;28;20206;-64
2023/08/19 01:57:00;;;;;;;1999.90;999.90;;;;;;;18.21;100.00;95038.22;5006596;28;20231;-59
2023/08/19 01:59:25;;;;;;;1999.90;999.90;;;;;;;18.18;100.00;95012.25;5006597;28;20211;-59
2023/08/19 02:01:51;;;;;;;1999.90;999.90;;;;;;;18.15;100.00;94995.84;5006256;28;20199;-61
2023/08/19 02:04:17;;;;;;;1999.90;999.90;;;;;;;18.11;100.00;94979.41;5006145;28;20199;-60
2023/08/19 02:06:42;;;;;;;1999.90;999.90;;;;;;;17.98;100.00;94975.25;5005948;28;20203;-60
2023/08/19 02:09:08;;;;;;;1999.90;999.90;;;;;;;17.92;100.00;94946.72;5005888;28;20196;-59
2023/08/19 02:11:33;;;;;;;1999.90;999.90;;;;;;;17.90;100.00;94935.34;5005709;28;20200;-59
2023/08/19 02:13:58;;;;;;;1999.90;999.90;;;;;;;17.86;100.00;94934.72;5005624;28;20195;-59
2023/08/19 02:16:24;;;;;;;1999.90;999.90;;;;;;;17.85;100.00;94922.91;5005745;28;20230;-60
2023/08/19 02:18:49;;;;;;;1999.90;999.90;;;;;;;17.84;100.00;94921.38;5005708;28;20279;-60
2023/08/19 02:21:14;;;;;;;1999.90;999.90;;;;;;;17.82;100.00;94917.53;5005830;28;20204;-60
2023/08/19 02:23:40;;;;;;;1999.90;999.90;;;;;;;17.83;100.00;94919.06;5005736;28;20200;-60
2023/08/19 02:26:05;;;;;;;1999.90;999.90;;;;;;;17.83;100.00;94914.31;5005472;28;20207;-60
2023/08/19 02:28:30;;;;;;;1999.90;999.90;;;;;;;17.82;100.00;94920.31;5004996;28;20208;-59
2023/08/19 02:31:01;;;;;;;1999.90;999.90;;;;;;;17.80;100.00;94929.06;5005862;28;20379;-59
2023/08/19 02:33:27;;;;;;;1999.90;999.90;;;;;;;17.79;100.00;94940.56;5005380;28;20206;-59
2023/08/19 02:35:52;;;;;;;1999.90;999.90;;;;;;;17.80;100.00;94947.63;5005776;28;20219;-60
2023/08/19 02:38:17;;;;;;;1999.90;999.90;;;;;;;17.83;100.00;94949.47;5005215;28;20195;-60
2023/08/19 02:40:50;;;;;;;1999.90;999.90;;;;;;;17.84;100.00;94959.28;5005292;28;20191;-59
2023/08/19 02:43:17;;;;;;;1999.90;999.90;;;;;;;17.85;100.00;94960.84;5005290;28;20329;-59
2023/08/19 02:45:42;;;;;;;1999.90;999.90;;;;;;;17.85;100.00;94975.41;5005221;28;20195;-60
2023/08/19 02:48:08;;;;;;;1999.90;999.90;;;;;;;17.86;100.00;94992.75;5005139;28;20266;-59
2023/08/19 02:50:33;;;;;;;1999.90;999.90;;;;;;;17.88;100.00;94993.06;5005091;28;20180;-60
2023/08/19 02:52:59;;;;;;;1999.90;999.90;;;;;;;17.84;100.00;95000.72;5005087;28;20183;-60
2023/08/19 02:55:24;;;;;;;1999.90;999.90;;;;;;;17.83;100.00;95013.00;5004999;28;20171;-59
2023/08/19 02:57:49;;;;;;;1999.90;999.90;;;;;;;17.81;100.00;95026.53;5005115;28;20191;-59
2023/08/19 03:00:15;;;;;;;1999.90;999.90;;;;;;;17.80;100.00;95033.25;5005401;28;20352;-60
2023/08/19 03:02:44;;;;;;;1999.90;999.90;;;;;;;17.78;100.00;95038.50;5005385;28;20195;-59
2023/08/19 03:05:09;;;;;;;1999.90;999.90;;;;;;;17.68;100.00;95045.22;5004983;28;20195;-59
2023/08/19 03:07:35;;;;;;;1999.90;999.90;;;;;;;17.64;100.00;95031.56;5005038;28;20218;-60
2023/08/19 03:10:00;;;;;;;1999.90;999.90;;;;;;;17.56;100.00;95018.50;5004920;28;20223;-59
2023/08/19 03:12:25;;;;;;;1999.90;999.90;;;;;;;17.49;100.00;95004.97;5004952;28;20191;-59
2023/08/19 03:14:51;;;;;;;1999.90;999.90;;;;;;;17.44;100.00;95006.34;5004871;28;20199;-60
2023/08/19 03:17:17;;;;;;;1999.90;999.90;;;;;;;17.37;100.00;95014.13;5004513;28;20366;-60
2023/08/19 03:19:42;;;;;;;1999.90;999.90;;;;;;;17.37;100.00;95009.38;5004762;28;20253;-63
2023/08/19 03:22:07;;;;;;;1999.90;999.90;;;;;;;17.42;100.00;94999.75;5005048;28;20191;-59
2023/08/19 03:24:33;;;;;;;1999.90;999.90;;;;;;;17.44;100.00;94994.56;5004449;28;20229;-63
2023/08/19 03:26:58;;;;;;;1999.90;999.90;;;;;;;17.40;100.00;94996.63;5004944;28;20164;-59
2023/08/19 03:29:24;;;;;;;1999.90;999.90;;;;;;;17.35;100.00;95011.03;5004873;28;20197;-59
2023/08/19 03:31:50;;;;;;;1999.90;999.90;;;;;;;17.31;100.00;95016.72;5004929;28;20207;-59
2023/08/19 03:34:15;;;;;;;1999.90;999.90;;;;;;;17.31;100.00;95004.91;5005155;28;20203;-59
2023/08/19 03:36:40;;;;;;;1999.90;999.90;;;;;;;17.26;100.00;95013.78;5004146;28;20238;-59
2023/08/19 03:39:06;;;;;;;1999.90;999.90;;;;;;;17.25;100.00;95010.25;5004255;28;20215;-59
2023/08/19 03:41:31;;;;;;;1999.90;999.90;;;;;;;17.14;100.00;95000.84;5004783;28;20211;-59
2023/08/19 03:43:56;;;;;;;1999.90;999.90;;;;;;;17.16;100.00;95003.94;5004173;28;20199;-59
2023/08/19 03:46:22;;;;;;;1999.90;999.90;;;;;;;17.17;100.00;95005.47;5004467;28;20183;-59
2023/08/19 03:48:47;;;;;;;1999.90;999.90;;;;;;;17.16;100.00;94993.69;5004285;28;20266;-59
2023/08/19 03:51:12;;;;;;;1999.90;999.90;;;;;;;17.13;100.00;95000.09;5004633;28;20192;-59
2023/08/19 03:53:37;;;;;;;1999.90;999.90;;;;;;;17.11;100.00;94999.78;5004378;28;20191;-59
2023/08/19 03:56:04;;;;;;;1999.90;999.90;;;;;;;17.14;100.00;94995.34;5003914;28;20187;-63
2023/08/19 03:58:29;;;;;;;1999.90;999.90;;;;;;;17.13;100.00;95004.84;5004610;28;20234;-59
2023/08/19 04:01:03;;;;;;;1999.90;999.90;;;;;;;17.14;100.00;95009.91;5004191;28;20188;-60
2023/08/19 04:03:28;;;;;;;1999.90;999.90;;;;;;;17.11;100.00;95013.56;5004020;28;20219;-59
2023/08/19 04:05:53;;;;;;;1999.90;999.90;;;;;;;17.12;100.00;95008.84;5004451;28;20195;-60
2023/08/19 04:08:19;;;;;;;1999.90;999.90;;;;;;;17.12;100.00;95012.34;5004100;28;20195;-59
2023/08/19 04:10:44;;;;;;;1999.90;999.90;;;;;;;17.12;100.00;95009.59;5004236;28;20196;-60
2023/08/19 04:13:09;;;;;;;1999.90;999.90;;;;;;;17.14;100.00;95020.16;5004241;28;20265;-60
2023/08/19 04:15:35;;;;;;;1999.90;999.90;;;;;;;17.16;100.00;95034.28;5004357;28;20191;-60
2023/08/19 04:18:00;;;;;;;1999.90;999.90;;;;;;;17.17;100.00;95039.38;5003985;28;20190;-60
2023/08/19 04:20:25;;;;;;;1999.90;999.90;;;;;;;17.21;100.00;95047.50;5004131;28;20250;-59
2023/08/19 04:22:51;;;;;;;1999.90;999.90;;;;;;;17.22;100.00;95057.34;5003951;28;20188;-60
2023/08/19 04:25:17;;;;;;;1999.90;999.90;;;;;;;17.25;100.00;95067.44;5004031;28;20195;-59
2023/08/19 04:27:42;;;;;;;1999.90;999.90;;;;;;;17.25;100.00;95079.25;5003859;28;20176;-59
2023/08/19 04:30:08;;;;;;;1999.90;999.90;;;;;;;17.29;100.00;95079.09;5004593;28;20196;-60
2023/08/19 04:32:33;;;;;;;1999.90;999.90;;;;;;;17.36;100.00;95087.91;5004314;28;20267;-59
2023/08/19 04:34:59;;;;;;;1999.90;999.90;;;;;;;17.45;100.00;95098.25;5004385;28;20203;-60
2023/08/19 04:37:24;;;;;;;1999.90;999.90;;;;;;;17.56;100.00;95115.91;5004168;28;20223;-59
2023/08/19 04:39:50;;;;;;;1999.90;999.90;;;;;;;17.67;100.00;95132.81;5004038;28;20210;-59
2023/08/19 04:42:15;;;;;;;1999.90;999.90;;;;;;;17.86;100.00;95155.78;5004232;28;20194;-60
2023/08/19 04:44:40;;;;;;;1999.90;999.90;;;;;;;18.07;100.00;95190.84;5003535;28;20200;-59
2023/08/19 04:47:06;;;;;;;1999.90;999.90;;;;;;;18.30;100.00;95218.72;5003708;28;20568;-59
2023/08/19 04:49:31;;;;;;;1999.90;999.90;;;;;;;18.52;100.00;95251.81;5003792;28;20188;-59
2023/08/19 04:51:58;;;;;;;1999.90;999.90;;;;;;;18.84;100.00;95279.69;5006926;28;20230;-59
2023/08/19 04:54:23;;;;;;;1999.90;999.90;;;;;;;19.29;100.00;95309.44;5007512;28;20195;-59
2023/08/19 04:56:48;;;;;;;1999.90;999.90;;;;;;;19.85;100.00;95348.50;5007313;28;20194;-60
2023/08/19 04:59:13;;;;;;;1999.90;999.90;;;;;;;20.41;100.00;95373.69;5007017;28;20204;-61
2023/08/19 05:01:39;;;;;;;1999.90;999.90;;;;;;;20.96;100.00;95399.25;5006861;28;20262;-59
2023/08/19 05:04:04;;;;;;;1999.90;999.90;;;;;;;21.34;100.00;95413.28;5006986;28;20267;-59
2023/08/19 05:06:30;;;;;;;1999.90;999.90;;;;;;;21.64;100.00;95426.78;5007357;28;20231;-59
2023/08/19 05:08:55;;;;;;;1999.90;999.90;;;;;;;21.98;100.00;95433.81;5007000;28;20204;-59
2023/08/19 05:11:20;;;;;;;1999.90;999.90;;;;;;;22.35;100.00;95430.25;5006828;28;20203;-59
2023/08/19 05:13:46;;;;;;;1999.90;999.90;;;;;;;22.54;100.00;95441.25;5006730;28;20195;-59
2023/08/19 05:16:11;;;;;;;1999.90;999.90;;;;;;;23.10;100.00;95443.69;5006789;28;20199;-59
2023/08/19 05:18:37;;;;;;;1999.90;999.90;;;;;;;23.32;100.00;95447.63;5006723;28;20210;-59
2023/08/19 05:21:02;;;;;;;1999.90;999.90;;;;;;;23.68;100.00;95449.91;5006896;28;20200;-59
2023/08/19 05:23:28;;;;;;;1999.90;999.90;;;;;;;24.00;100.00;95453.63;5006819;28;20246;-59
2023/08/19 05:25:53;;;;;;;1999.90;999.90;;;;;;;24.10;100.00;95461.34;5007387;28;20199;-59
2023/08/19 05:28:18;;;;;;;1999.90;999.90;;;;;;;24.31;100.00;95451.72;5006494;28;20196;-60
2023/08/19 05:30:44;;;;;;;1999.90;999.90;;;;;;;24.54;100.00;95459.06;5006616;28;20184;-59
2023/08/19 05:33:09;;;;;;;1999.90;999.90;;;;;;;24.64;100.00;95454.09;5006858;28;20243;-59
2023/08/19 05:35:34;;;;;;;1999.90;999.90;;;;;;;24.53;100.00;95462.34;5006913;28;20192;-60
2023/08/19 05:38:00;;;;;;;1999.90;999.90;;;;;;;24.85;100.00;95466.75;5006707;28;20199;-59
2023/08/19 05:40:25;;;;;;;1999.90;999.90;;;;;;;25.22;100.00;95461.97;5006841;28;20208;-59
2023/08/19 05:42:50;;;;;;;1999.90;999.90;;;;;;;25.78;100.00;95469.50;5006122;28;20212;-59
2023/08/19 05:45:16;;;;;;;1999.90;999.90;;;;;;;26.09;100.00;95466.63;5006655;28;20192;-60
2023/08/19 05:47:41;;;;;;;1999.90;999.90;;;;;;;26.22;100.00;95475.31;5006193;28;20204;-59
2023/08/19 05:50:07;;;;;;;1999.90;999.90;;;;;;;26.46;100.00;95467.28;5006176;28;20187;-59
2023/08/19 05:52:33;;;;;;;1999.90;999.90;;;;;;;26.64;100.00;95466.84;5006139;28;20202;-59
2023/08/19 05:54:58;;;;;;;1999.90;999.90;;;;;;;27.15;100.00;95474.81;5006275;28;20188;-59
2023/08/19 05:57:23;;;;;;;1999.90;999.90;;;;;;;27.25;100.00;95473.31;5006074;28;20264;-59
2023/08/19 05:59:49;;;;;;;1999.90;999.90;;;;;;;27.44;100.00;95474.31;5005733;28;20211;-59
2023/08/19 06:02:14;;;;;;;1999.90;999.90;;;;;;;27.56;100.00;95472.25;5004965;28;20199;-59
2023/08/19 06:04:39;;;;;;;1999.90;999.90;;;;;;;28.05;100.00;95474.22;5006531;28;20203;-59
2023/08/19 06:07:05;;;;;;;1999.90;999.90;;;;;;;28.34;100.00;95473.59;5006225;28;20207;-59
2023/08/19 06:09:30;;;;;;;1999.90;999.90;;;;;;;28.28;100.00;95475.66;5005788;28;20262;-59
2023/08/19 06:11:56;;;;;;;1999.90;999.90;;;;;;;29.12;100.00;95479.56;5005740;28;20207;-59
2023/08/19 06:14:21;;;;;;;1999.90;999.90;;;;;;;28.70;100.00;95482.91;5006171;28;20218;-59
2023/08/19 06:16:47;;;;;;;1999.90;999.90;;;;;;;29.07;100.00;95483.19;5005583;28;20195;-59
2023/08/19 06:19:13;;;;;;;1999.90;999.90;;;;;;;29.33;100.00;95489.13;5005987;28;20215;-59
2023/08/19 06:21:38;;;;;;;1999.90;999.90;;;;;;;29.63;100.00;95487.09;5005537;28;20266;-59
2023/08/19 06:24:05;;;;;;;1999.90;999.90;;;;;;;30.06;100.00;95476.69;5005799;28;20235;-59
2023/08/19 06:26:30;;;;;;;1999.90;999.90;;;;;;;30.22;100.00;95501.13;5005432;28;20198;-59
2023/08/19 06:28:55;;;;;;;1999.90;999.90;;;;;;;30.65;100.00;95487.75;5005536;28;20200;-60
2023/08/19 06:31:21;;;;;;;1999.90;999.90;;;;;;;30.67;100.00;95493.66;5005264;28;20218;-59
2023/08/19 06:33:46;;;;;;;1999.90;999.90;;;;;;;31.10;100.00;95489.44;5006109;28;20235;-59
2023/08/19 06:36:16;;;;;;;1999.90;999.90;;;;;;;31.92;100.00;95489.44;5005692;28;20235;-58
2023/08/19 06:38:48;;;;;;;1999.90;999.90;;;;;;;32.63;94.39;95495.00;5005514;28;20257;-59
2023/08/19 06:41:15;;;;;;;1999.90;999.90;;;;;;;33.20;90.28;95497.59;5005466;28;20207;-58
2023/08/19 06:43:41;;;;;;;1999.90;999.90;;;;;;;32.81;91.00;95506.19;5005203;28;20258;-58
2023/08/19 06:46:07;;;;;;;1999.90;999.90;;;;;;;32.97;89.84;95502.25;5005086;28;20204;-59
2023/08/19 06:48:34;;;;;;;1999.90;999.90;;;;;;;33.78;84.78;95517.84;5005057;28;20192;-58
2023/08/19 06:51:01;;;;;;;1999.90;999.90;;;;;;;34.37;80.79;95515.34;5004971;28;20203;-59
2023/08/19 06:53:26;;;;;;;1999.90;999.90;;;;;;;34.22;79.38;95515.22;5005132;28;20216;-59
2023/08/19 06:56:21;;;;;;;1999.90;999.90;;;;;;;35.04;76.86;95520.63;5005116;28;20243;-56
2023/08/19 06:58:52;;;;;;;1999.90;999.90;;;;;;;35.36;73.78;95520.97;4989832;28;20294;-57
2023/08/19 07:01:23;;;;;;;1999.90;999.90;;;;;;;35.69;72.33;95519.91;5004921;28;20199;-57
2023/08/19 07:03:50;;;;;;;1999.90;999.90;;;;;;;35.83;69.36;95521.28;5005010;28;20266;-57
2023/08/19 07:06:19;;;;;;;1999.90;999.90;;;;;;;36.22;68.97;95523.53;5004998;28;20238;-57
2023/08/19 07:08:45;;;;;;;1999.90;999.90;;;;;;;36.36;65.46;95524.88;5004659;28;20199;-56
2023/08/19 07:11:11;;;;;;;1999.90;999.90;;;;;;;36.49;64.35;95530.38;5004931;28;20195;-56
2023/08/19 07:13:37;;;;;;;1999.90;999.90;;;;;;;36.30;65.19;95530.00;5004157;28;20223;-57
2023/08/19 07:16:04;;;;;;;1999.90;999.90;;;;;;;35.58;69.84;95534.47;5004743;28;20282;-57
2023/08/19 07:18:41;;;;;;;1999.90;999.90;;;;;;;35.99;65.69;95534.94;5004672;28;20219;-56
2023/08/19 07:21:13;;;;;;;1999.90;999.90;;;;;;;36.86;62.20;95529.56;5004967;28;20168;-57
2023/08/19 07:23:40;;;;;;;1999.90;999.90;;;;;;;36.39;64.88;95532.28;5004694;28;20234;-57
2023/08/19 07:26:06;;;;;;;1999.90;999.90;;;;;;;36.99;63.67;95532.16;5004776;28;20192;-57
2023/08/19 07:28:31;;;;;;;1999.90;999.90;;;;;;;37.41;60.94;95536.00;5004476;28;20199;-57
2023/08/19 07:30:58;;;;;;;1999.90;999.90;;;;;;;38.05;57.12;95543.78;5004271;28;20302;-57
2023/08/19 07:33:23;;;;;;;1999.90;999.90;;;;;;;37.83;57.10;95548.31;5004707;28;20255;-57
2023/08/19 07:35:49;;;;;;;1999.90;999.90;;;;;;;37.12;59.94;95543.31;5004690;28;20203;-59
2023/08/19 07:38:14;;;;;;;1999.90;999.90;;;;;;;38.22;56.72;95547.47;5004041;28;20196;-59
2023/08/19 07:40:40;;;;;;;1999.90;999.90;;;;;;;38.14;56.63;95541.06;5004122;28;20282;-56
2023/08/19 07:43:05;;;;;;;1999.90;999.90;;;;;;;38.08;57.24;95549.09;5004295;28;20206;-56
2023/08/19 07:45:30;;;;;;;1999.90;999.90;;;;;;;38.32;56.79;95542.63;5004470;28;20200;-56
2023/08/19 07:47:56;;;;;;;1999.90;999.90;;;;;;;38.09;58.89;95550.59;5004065;28;20281;-57
2023/08/19 07:50:22;;;;;;;1999.90;999.90;;;;;;;38.32;55.10;95545.50;5003865;28;20176;-57
2023/08/19 07:52:47;;;;;;;1999.90;999.90;;;;;;;38.63;53.63;95555.31;5003974;28;20242;-57
2023/08/19 07:55:13;;;;;;;1999.90;999.90;;;;;;;38.43;54.30;95544.25;5004103;28;20195;-57
2023/08/19 07:57:38;;;;;;;1999.90;999.90;;;;;;;38.36;55.73;95545.84;5004780;28;20207;-57
2023/08/19 08:00:04;;;;;;;1999.90;999.90;;;;;;;38.44;53.70;95552.22;5003878;28;20214;-56
2023/08/19 08:02:29;;;;;;;1999.90;999.90;;;;;;;38.32;54.16;95562.63;5004278;28;20262;-57
2023/08/19 08:04:55;;;;;;;1999.90;999.90;;;;;;;38.34;54.68;95554.22;5004126;28;20195;-57
2023/08/19 08:07:21;;;;;;;1999.90;999.90;;;;;;;38.62;52.87;95559.50;5004201;28;20222;-57
2023/08/19 08:09:46;;;;;;;1999.90;999.90;;;;;;;38.32;53.34;95562.63;5004499;28;20195;-57
2023/08/19 08:12:11;;;;;;;1999.90;999.90;;;;;;;38.35;52.54;95550.00;5003971;28;20200;-57
2023/08/19 08:14:37;;;;;;;1999.90;999.90;;;;;;;38.45;54.97;95556.59;5004254;28;20242;-57
2023/08/19 08:17:02;;;;;;;1999.90;999.90;;;;;;;39.21;50.65;95559.47;5003833;28;20203;-57
2023/08/19 08:19:28;;;;;;;1999.90;999.90;;;;;;;39.91;48.15;95556.69;5004114;28;20211;-57
2023/08/19 08:21:54;;;;;;;1999.90;999.90;;;;;;;39.45;49.17;95561.47;5003885;28;20212;-57
2023/08/19 08:24:20;;;;;;;1999.90;999.90;;;;;;;38.72;51.49;95554.66;5004274;28;20196;-57
2023/08/19 08:26:46;;;;;;;1999.90;999.90;;;;;;;39.23;49.38;95551.81;5006813;28;20235;-57
2023/08/19 08:29:11;;;;;;;1999.90;999.90;;;;;;;39.33;46.41;95559.69;5007597;28;20195;-57
2023/08/19 08:31:37;;;;;;;1999.90;999.90;;;;;;;39.12;46.31;95558.06;5007538;28;20207;-57
2023/08/19 08:34:02;;;;;;;1999.90;999.90;;;;;;;37.97;52.74;95566.66;5007550;28;20206;-57
2023/08/19 08:36:27;;;;;;;1999.90;999.90;;;;;;;38.85;50.29;95548.59;5007703;28;20196;-56
2023/08/19 08:38:53;;;;;;;1999.90;999.90;;;;;;;39.82;46.32;95548.00;5007220;28;20266;-57
2023/08/19 08:41:18;;;;;;;1999.90;999.90;;;;;;;38.86;46.81;95555.81;5006948;28;20223;-59
2023/08/19 08:43:47;;;;;;;1999.90;999.90;;;;;;;39.45;47.04;95549.28;5007542;28;20199;-59
2023/08/19 08:46:14;;;;;;;1999.90;999.90;;;;;;;39.95;43.75;95544.78;5007432;28;20254;-57
2023/08/19 08:48:41;;;;;;;1999.90;999.90;;;;;;;39.88;43.01;95548.50;5007521;28;20220;-57
2023/08/19 08:51:07;;;;;;;1999.90;999.90;;;;;;;38.62;45.92;95553.03;5007613;28;20195;-57
2023/08/19 08:53:34;;;;;;;1999.90;999.90;;;;;;;38.49;48.01;95556.22;5007767;28;20239;-57
2023/08/19 08:56:00;;;;;;;1999.90;999.90;;;;;;;38.19;47.76;95548.63;5007545;28;20203;-58
2023/08/19 08:58:26;;;;;;;1999.90;999.90;;;;;;;38.99;46.93;95549.81;5007121;28;20203;-58
2023/08/19 09:00:53;;;;;;;1999.90;999.90;;;;;;;37.52;51.38;95549.81;5007017;28;20218;-58
2023/08/19 09:03:25;;;;;;;1999.90;999.90;;;;;;;38.88;48.13;95550.28;5007440;28;20191;-58
2023/08/19 09:05:52;;;;;;;1999.90;999.90;;;;;;;39.01;48.08;95558.56;5006979;28;20213;-58
2023/08/19 09:08:25;;;;;;;1999.90;999.90;;;;;;;39.59;45.48;95554.03;5007145;28;20268;-57
2023/08/19 09:10:50;;;;;;;1999.90;999.90;;;;;;;39.01;46.17;95554.94;5007422;28;20203;-58
2023/08/19 09:13:21;;;;;;;1999.90;999.90;;;;;;;39.10;44.12;95555.00;5007244;28;20200;-57
2023/08/19 09:15:46;;;;;;;1999.90;999.90;;;;;;;39.40;43.90;95564.59;5007306;28;20182;-58
2023/08/19 09:18:12;;;;;;;1999.90;999.90;;;;;;;37.27;53.79;95546.13;5007223;28;20192;-57
2023/08/19 09:20:40;;;;;;;1999.90;999.90;;;;;;;37.78;51.63;95549.28;5006555;28;20211;-57
2023/08/19 09:23:09;;;;;;;1999.90;999.90;;;;;;;37.11;52.41;95549.59;5007068;28;20278;-57
2023/08/19 09:25:36;;;;;;;1999.90;999.90;;;;;;;37.60;51.28;95544.81;5006741;28;20199;-57
2023/08/19 09:28:01;;;;;;;1999.90;999.90;;;;;;;37.10;53.69;95543.13;5006434;28;20195;-56
2023/08/19 09:30:34;;;;;;;1999.90;999.90;;;;;;;38.21;48.27;95545.97;5006594;28;20271;-57
2023/08/19 09:33:00;;;;;;;1999.90;999.90;;;;;;;37.23;48.63;95545.78;5006748;28;20195;-57
2023/08/19 09:35:33;;;;;;;1999.90;999.90;;;;;;;36.31;50.57;95542.91;5006931;28;20191;-56
2023/08/19 09:37:58;;;;;;;1999.90;999.90;;;;;;;37.42;48.87;95548.91;5006719;28;20199;-57
2023/08/19 09:40:24;;;;;;;1999.90;999.90;;;;;;;37.54;46.00;95547.13;5006316;28;20322;-57
2023/08/19 09:42:49;;;;;;;1999.90;999.90;;;;;;;37.34;46.92;95539.63;5006291;28;20211;-58
2023/08/19 09:45:21;;;;;;;1999.90;999.90;;;;;;;36.97;48.98;95546.22;5006151;28;20212;-57
2023/08/19 09:47:50;;;;;;;1999.90;999.90;;;;;;;38.29;44.54;95552.38;5006615;28;20218;-57
2023/08/19 09:50:22;;;;;;;1999.90;999.90;;;;;;;37.85;44.74;95550.56;5006204;28;20245;-57
2023/08/19 09:53:00;;;;;;;1999.90;999.90;;;;;;;37.34;45.18;95550.28;5006149;28;20191;-57
2023/08/19 09:55:30;;;;;;;1999.90;999.90;;;;;;;37.47;47.22;95541.47;5006263;28;20202;-57
2023/08/19 09:57:56;;;;;;;1999.90;999.90;;;;;;;39.19;43.98;95545.75;5006503;28;20210;-58
2023/08/19 10:00:22;;;;;;;1999.90;999.90;;;;;;;39.94;42.42;95544.00;5006308;28;20231;-57
2023/08/19 10:02:48;;;;;;;1999.90;999.90;;;;;;;38.23;46.38;95546.13;5006157;28;20188;-57
2023/08/19 10:05:15;;;;;;;1999.90;999.90;;;;;;;38.63;46.35;95549.59;5005766;28;20203;-58
2023/08/19 10:07:47;;;;;;;1999.90;999.90;;;;;;;38.63;47.83;95543.88;5006238;28;20175;-58
2023/08/19 10:10:13;;;;;;;1999.90;999.90;;;;;;;38.44;49.26;95546.50;5006182;28;20199;-57
2023/08/19 10:12:40;;;;;;;1999.90;999.90;;;;;;;38.08;50.20;95549.09;5005797;28;20191;-57
2023/08/19 10:15:11;;;;;;;1999.90;999.90;;;;;;;39.01;48.91;95547.13;5006037;28;20206;-58
2023/08/19 10:17:39;;;;;;;1999.90;999.90;;;;;;;38.27;47.47;95542.88;5005683;28;20202;-57
2023/08/19 10:20:11;;;;;;;1999.90;999.90;;;;;;;37.86;46.99;95555.72;5005588;28;20283;-58
2023/08/19 10:22:39;;;;;;;1999.90;999.90;;;;;;;38.36;46.26;95551.53;5005835;28;20194;-58
2023/08/19 10:25:06;;;;;;;1999.90;999.90;;;;;;;38.11;49.46;95547.94;5005585;28;20262;-57
2023/08/19 10:27:32;;;;;;;1999.90;999.90;;;;;;;38.15;48.03;95553.22;5005464;28;20184;-57
2023/08/19 10:29:58;;;;;;;1999.90;999.90;;;;;;;38.72;47.85;95548.94;5005403;28;20219;-58
2023/08/19 10:32:32;;;;;;;1999.90;999.90;;;;;;;39.08;45.76;95545.53;5005618;28;20163;-58
2023/08/19 10:35:09;;;;;;;1999.90;999.90;;;;;;;38.27;48.96;95549.31;5006012;28;20194;-57
2023/08/19 10:37:41;;;;;;;1999.90;999.90;;;;;;;38.80;48.37;95549.63;5005741;28;20258;-57
2023/08/19 10:40:17;;;;;;;1999.90;999.90;;;;;;;38.69;47.36;95550.13;5005249;28;20208;-58
2023/08/19 10:42:56;;;;;;;1999.90;999.90;;;;;;;38.20;47.60;95549.41;5005555;28;20201;-57
2023/08/19 10:45:21;;;;;;;1999.90;999.90;;;;;;;38.25;47.98;95545.53;5005182;28;20255;-57
2023/08/19 10:47:50;;;;;;;1999.90;999.90;;;;;;;37.84;49.08;95541.28;5004903;28;20188;-57